Time;durP1;ratioP1;P1;durP2;ratioP2;P2;SDS_P1;SDS_P2;PMS_P1;PMS_P2;Temp;Humidity;BMP_temperature;BMP_pressure;BME280_temperature;BME280_humidity;BME280_pressure;Samples;Min_cycle;Max_cycle;Signal;HPM_P1;HPM_P2
2022/11/11 00:01:00;;;;;;;1999.90;999.90;;;12.00;99.90;;;;;;5049652;28;20482;-68
2022/11/11 00:03:27;;;;;;;1999.90;999.90;;;11.90;99.90;;;;;;5048724;28;20958;-69
2022/11/11 00:05:54;;;;;;;1999.90;999.90;;;11.70;99.90;;;;;;5049704;28;20841;-68
2022/11/11 00:08:21;;;;;;;1999.90;999.90;;;11.60;99.90;;;;;;5051471;28;20469;-68
2022/11/11 00:10:49;;;;;;;1999.90;999.90;;;11.40;99.90;;;;;;5046704;28;20446;-68
2022/11/11 00:13:16;;;;;;;1999.90;999.90;;;11.30;99.90;;;;;;5053109;28;20458;-69
2022/11/11 00:15:43;;;;;;;1999.90;999.90;;;11.20;99.90;;;;;;5049460;28;20459;-68
2022/11/11 00:26:29;;;;;;;1999.90;999.90;;;10.60;99.90;;;;;;5055898;28;20545;-68
2022/11/11 00:28:56;;;;;;;1999.90;999.90;;;10.60;99.90;;;;;;5049472;28;20970;-67
2022/11/11 00:31:22;;;;;;;1999.90;999.90;;;10.70;99.90;;;;;;5054656;28;21013;-68
2022/11/11 00:33:49;;;;;;;1999.90;999.90;;;10.70;99.90;;;;;;5053631;28;20453;-70
2022/11/11 00:36:15;;;;;;;1999.90;999.90;;;10.90;99.90;;;;;;5055563;28;20453;-68
2022/11/11 00:38:45;;;;;;;1999.90;999.90;;;10.90;99.90;;;;;;5064653;28;20969;-68
2022/11/11 00:41:13;;;;;;;1999.90;999.90;;;10.90;99.90;;;;;;5062249;28;20313;-68
2022/11/11 00:43:41;;;;;;;1999.90;999.90;;;10.80;99.90;;;;;;5064480;28;20453;-68
2022/11/11 00:51:37;;;;;;;1999.90;999.90;;;10.60;99.90;;;;;;5055925;28;20469;-67
2022/11/11 00:54:04;;;;;;;1999.90;999.90;;;10.70;99.90;;;;;;5062255;28;20461;-70
2022/11/11 00:56:30;;;;;;;1999.90;999.90;;;10.80;99.90;;;;;;5051244;28;20983;-69
2022/11/11 00:58:59;;;;;;;1999.90;999.90;;;11.30;99.90;;;;;;5062759;28;20461;-67
2022/11/11 01:01:25;;;;;;;1999.90;999.90;;;11.30;99.90;;;;;;5057843;28;20943;-67
2022/11/11 01:03:52;;;;;;;1999.90;999.90;;;11.40;99.90;;;;;;5056644;28;20469;-67
2022/11/11 01:06:19;;;;;;;1999.90;999.90;;;11.60;99.90;;;;;;5054464;28;20462;-69
2022/11/11 01:08:46;;;;;;;1999.90;999.90;;;11.30;99.90;;;;;;5063946;28;20470;-69
2022/11/11 01:11:14;;;;;;;1999.90;999.90;;;11.30;99.90;;;;;;5060414;28;20470;-68
2022/11/11 01:13:42;;;;;;;1999.90;999.90;;;11.40;99.90;;;;;;5065413;28;20461;-69
2022/11/11 01:16:13;;;;;;;1999.90;999.90;;;11.40;99.90;;;;;;5060762;28;20465;-68
2022/11/11 01:18:40;;;;;;;1999.90;999.90;;;11.40;99.90;;;;;;5054933;28;20459;-68
2022/11/11 01:21:08;;;;;;;1999.90;999.90;;;11.50;99.90;;;;;;5058433;28;20465;-68
2022/11/11 01:23:37;;;;;;;1999.90;999.90;;;11.70;99.90;;;;;;5046590;23;20503;-70
2022/11/11 01:26:05;;;;;;;1999.90;999.90;;;11.80;99.90;;;;;;5011929;28;20470;-70
2022/11/11 01:28:33;;;;;;;1999.90;999.90;;;11.90;99.90;;;;;;5017014;28;20460;-71
2022/11/11 01:31:04;;;;;;;1999.90;999.90;;;11.90;99.90;;;;;;5011054;28;20865;-69
2022/11/11 01:33:32;;;;;;;1999.90;999.90;;;11.80;99.90;;;;;;5016330;28;20479;-69
2022/11/11 01:36:04;;;;;;;1999.90;999.90;;;11.80;99.90;;;;;;5009313;28;20471;-70
2022/11/11 01:38:31;;;;;;;1999.90;999.90;;;11.90;99.90;;;;;;5023680;28;20463;-69
2022/11/11 01:40:57;;;;;;;1999.90;999.90;;;11.80;99.90;;;;;;5013304;28;20829;-68
2022/11/11 01:43:25;;;;;;;1999.90;999.90;;;11.70;99.90;;;;;;5011750;28;20606;-69
2022/11/11 01:45:56;;;;;;;1999.90;999.90;;;11.80;99.90;;;;;;5016392;28;20464;-64
2022/11/11 01:51:23;;;;;;;1999.90;999.90;;;12.10;99.90;;;;;;5021899;28;21438;-69
2022/11/11 01:53:56;;;;;;;1999.90;999.90;;;12.20;99.90;;;;;;5016541;28;20483;-69
2022/11/11 01:56:24;;;;;;;1999.90;999.90;;;12.30;99.90;;;;;;5010914;28;20455;-70
2022/11/11 01:58:54;;;;;;;1999.90;999.90;;;12.20;99.90;;;;;;5020935;28;20464;-69
2022/11/11 02:01:21;;;;;;;1999.90;999.90;;;12.30;99.90;;;;;;5011518;28;20459;-70
2022/11/11 02:06:34;;;;;;;1999.90;999.90;;;12.20;99.90;;;;;;5020981;28;20514;-71
2022/11/11 02:09:03;;;;;;;1999.90;999.90;;;12.20;99.90;;;;;;5013489;28;20496;-69
2022/11/11 02:14:38;;;;;;;1999.90;999.90;;;12.10;99.90;;;;;;5011808;28;20482;-67
2022/11/11 02:17:07;;;;;;;1999.90;999.90;;;12.00;99.90;;;;;;5014662;28;20470;-71
2022/11/11 02:19:43;;;;;;;1999.90;999.90;;;11.90;99.90;;;;;;5025038;28;20468;-69
2022/11/11 02:22:15;;;;;;;1999.90;999.90;;;11.80;99.90;;;;;;5015252;28;20498;-71
2022/11/11 02:24:43;;;;;;;1999.90;999.90;;;11.60;99.90;;;;;;5019261;28;20701;-69
2022/11/11 02:27:14;;;;;;;1999.90;999.90;;;11.60;99.90;;;;;;5014060;28;20471;-70
2022/11/11 02:29:42;;;;;;;1999.90;999.90;;;11.50;99.90;;;;;;5010126;28;20459;-69
2022/11/11 02:32:09;;;;;;;1999.90;999.90;;;11.40;99.90;;;;;;5011243;28;20480;-71
2022/11/11 02:34:35;;;;;;;1999.90;999.90;;;11.10;99.90;;;;;;5018755;28;20456;-71
2022/11/11 02:37:06;;;;;;;1999.90;999.90;;;10.90;99.90;;;;;;5013099;28;20478;-71
2022/11/11 02:39:37;;;;;;;1999.90;999.90;;;10.70;99.90;;;;;;5019557;28;20518;-71
2022/11/11 02:42:09;;;;;;;1999.90;999.90;;;10.70;99.90;;;;;;5014795;28;20995;-71
2022/11/11 02:44:36;;;;;;;1999.90;999.90;;;10.50;99.90;;;;;;5017403;28;20506;-74
2022/11/11 02:47:03;;;;;;;1999.90;999.90;;;10.60;99.90;;;;;;5013284;28;21066;-71
2022/11/11 02:49:30;;;;;;;1999.90;999.90;;;10.80;99.90;;;;;;5016988;28;20469;-70
2022/11/11 02:51:57;;;;;;;1999.90;999.90;;;10.60;99.90;;;;;;5013923;28;20464;-68
2022/11/11 02:54:24;;;;;;;1999.90;999.90;;;10.50;99.90;;;;;;5013376;28;20479;-67
2022/11/11 02:57:09;;;;;;;1999.90;999.90;;;10.50;99.90;;;;;;5012651;28;20456;-71
2022/11/11 02:59:40;;;;;;;1999.90;999.90;;;10.40;99.90;;;;;;5015853;28;20463;-69
2022/11/11 03:02:08;;;;;;;1999.90;999.90;;;10.40;99.90;;;;;;5013539;28;20491;-69
2022/11/11 03:04:36;;;;;;;1999.90;999.90;;;10.40;99.90;;;;;;5019475;28;20865;-70
2022/11/11 03:07:03;;;;;;;1999.90;999.90;;;10.70;99.90;;;;;;5013748;28;20486;-69
2022/11/11 03:09:30;;;;;;;1999.90;999.90;;;10.70;99.90;;;;;;5015235;28;20474;-67
2022/11/11 03:11:57;;;;;;;1999.90;999.90;;;10.80;99.90;;;;;;5014453;28;20464;-68
2022/11/11 03:14:24;;;;;;;1999.90;999.90;;;10.80;99.90;;;;;;5012165;28;20503;-65
2022/11/11 03:19:37;;;;;;;1999.90;999.90;;;10.80;99.90;;;;;;5011261;28;20459;-72
2022/11/11 03:22:03;;;;;;;1999.90;999.90;;;10.40;99.90;;;;;;5013473;28;20494;-70
2022/11/11 03:27:11;;;;;;;1999.90;999.90;;;10.20;99.90;;;;;;5012727;28;20494;-66
2022/11/11 03:29:38;;;;;;;1999.90;999.90;;;10.20;99.90;;;;;;5011991;28;20507;-69
2022/11/11 03:32:07;;;;;;;1999.90;999.90;;;10.30;99.90;;;;;;5014229;28;21930;-68
2022/11/11 03:34:34;;;;;;;1999.90;999.90;;;10.20;99.90;;;;;;5013496;28;20468;-68
2022/11/11 03:39:45;;;;;;;1999.90;999.90;;;10.00;99.90;;;;;;5006277;28;20525;-69
2022/11/11 03:42:12;;;;;;;1999.90;999.90;;;9.80;99.90;;;;;;5014241;28;20488;-68
2022/11/11 03:44:39;;;;;;;1999.90;999.90;;;9.70;99.90;;;;;;5023576;28;20842;-70
2022/11/11 03:47:07;;;;;;;1999.90;999.90;;;9.60;99.90;;;;;;5015833;28;20467;-69
2022/11/11 03:49:33;;;;;;;1999.90;999.90;;;9.50;99.90;;;;;;5018530;28;20482;-69
2022/11/11 03:52:00;;;;;;;1999.90;999.90;;;9.50;99.90;;;;;;5018528;28;20482;-67
2022/11/11 03:54:27;;;;;;;1999.90;999.90;;;9.40;99.90;;;;;;5012528;28;20487;-68
2022/11/11 03:57:29;;;;;;;1999.90;999.90;;;9.30;99.90;;;;;;5010919;28;20468;-69
2022/11/11 03:59:43;;;;;;;1999.90;999.90;;;9.30;99.90;;;;;;5007355;28;20518;-70
2022/11/11 04:10:26;;;;;;;1999.90;999.90;;;8.90;99.90;;;;;;5025952;28;20430;-70
2022/11/11 04:23:48;;;;;;;1999.90;999.90;;;9.30;99.90;;;;;;5011472;28;20521;-68
2022/11/11 04:26:14;;;;;;;1999.90;999.90;;;9.50;99.90;;;;;;5017493;28;20463;-69
2022/11/11 04:31:25;;;;;;;1999.90;999.90;;;10.00;99.90;;;;;;5012634;28;20243;-70
2022/11/11 04:33:52;;;;;;;1999.90;999.90;;;10.00;99.90;;;;;;5017982;28;20862;-69
2022/11/11 04:36:19;;;;;;;1999.90;999.90;;;10.10;99.90;;;;;;5011407;28;20467;-70
2022/11/11 04:41:30;;;;;;;1999.90;999.90;;;10.30;99.90;;;;;;5010345;28;20518;-70
2022/11/11 04:46:41;;;;;;;1999.90;999.90;;;10.40;99.90;;;;;;5016875;28;20969;-69
2022/11/11 04:49:09;;;;;;;1999.90;999.90;;;10.40;99.90;;;;;;5011438;28;20460;-67
2022/11/11 04:54:16;;;;;;;1999.90;999.90;;;10.20;99.90;;;;;;5015688;28;20464;-70
2022/11/11 04:56:49;;;;;;;1999.90;999.90;;;10.10;99.90;;;;;;5010279;28;20463;-68
2022/11/11 04:59:15;;;;;;;1999.90;999.90;;;9.90;99.90;;;;;;5015709;28;20456;-67
2022/11/11 05:04:28;;;;;;;1999.90;999.90;;;9.80;99.90;;;;;;5011353;28;20463;-69
2022/11/11 05:09:39;;;;;;;1999.90;999.90;;;9.80;99.90;;;;;;5013715;28;20524;-69
2022/11/11 05:12:06;;;;;;;1999.90;999.90;;;10.00;99.90;;;;;;5011797;28;20515;-70
2022/11/11 05:22:48;;;;;;;1999.90;999.90;;;10.50;99.90;;;;;;5007466;28;20491;-69
2022/11/11 05:25:27;;;;;;;1999.90;999.90;;;10.50;99.90;;;;;;5010516;28;21197;-69
2022/11/11 05:27:55;;;;;;;1999.90;999.90;;;10.50;99.90;;;;;;5013958;28;21019;-70
2022/11/11 05:30:23;;;;;;;1999.90;999.90;;;10.50;99.90;;;;;;5012815;28;20459;-68
2022/11/11 05:32:50;;;;;;;1999.90;999.90;;;10.50;99.90;;;;;;5013639;28;20467;-67
2022/11/11 05:35:18;;;;;;;1999.90;999.90;;;10.50;99.90;;;;;;5012500;28;20557;-69
2022/11/11 05:38:19;;;;;;;1999.90;999.90;;;10.40;99.90;;;;;;5012420;28;20487;-74
2022/11/11 05:40:34;;;;;;;1999.90;999.90;;;10.60;99.90;;;;;;5014892;28;20510;-71
2022/11/11 05:43:01;;;;;;;1999.90;999.90;;;10.60;99.90;;;;;;5012544;28;20833;-68
2022/11/11 05:45:28;;;;;;;1999.90;999.90;;;10.60;99.90;;;;;;5013771;28;20538;-69
2022/11/11 05:47:54;;;;;;;1999.90;999.90;;;10.70;99.90;;;;;;5015802;28;20581;-70
2022/11/11 05:50:22;;;;;;;1999.90;999.90;;;10.50;99.90;;;;;;5013053;28;20835;-68
2022/11/11 05:52:50;;;;;;;1999.90;999.90;;;10.30;99.90;;;;;;5004887;28;20996;-69
2022/11/11 05:55:19;;;;;;;1999.90;999.90;;;10.10;99.90;;;;;;5007921;28;20472;-69
2022/11/11 05:57:46;;;;;;;1999.90;999.90;;;9.90;99.90;;;;;;5017263;28;20459;-67
2022/11/11 06:00:17;;;;;;;1999.90;999.90;;;9.80;99.90;;;;;;5018281;28;20470;-68
2022/11/11 06:02:44;;;;;;;1999.90;999.90;;;9.70;99.90;;;;;;5019083;28;20908;-68
2022/11/11 06:05:11;;;;;;;1999.90;999.90;;;9.80;99.90;;;;;;5016682;28;20464;-69
2022/11/11 06:07:40;;;;;;;1999.90;999.90;;;9.80;99.90;;;;;;5020523;28;20452;-68
2022/11/11 06:13:03;;;;;;;1999.90;999.90;;;9.90;99.90;;;;;;5011932;28;20483;-68
2022/11/11 06:15:31;;;;;;;1999.90;999.90;;;9.80;99.90;;;;;;5005611;28;20873;-68
2022/11/11 06:17:58;;;;;;;1999.90;999.90;;;9.80;99.90;;;;;;5016934;28;20468;-69
2022/11/11 06:20:25;;;;;;;1999.90;999.90;;;9.70;99.90;;;;;;5019016;28;20462;-67
2022/11/11 06:22:56;;;;;;;1999.90;999.90;;;9.60;99.90;;;;;;5014053;28;20499;-70
2022/11/11 06:28:09;;;;;;;1999.90;999.90;;;9.50;99.90;;;;;;5018842;28;20447;-69
2022/11/11 06:30:35;;;;;;;1999.90;999.90;;;9.60;99.90;;;;;;5021842;28;20459;-68
2022/11/11 06:33:03;;;;;;;1999.90;999.90;;;9.60;99.90;;;;;;5017004;28;20479;-67
2022/11/11 06:35:29;;;;;;;1999.90;999.90;;;9.60;99.90;;;;;;5023297;28;20455;-68
2022/11/11 06:37:57;;;;;;;1999.90;999.90;;;9.70;99.90;;;;;;5005958;28;20472;-68
2022/11/11 06:40:24;;;;;;;1999.90;999.90;;;9.80;99.90;;;;;;5009401;28;20915;-67
2022/11/11 06:42:51;;;;;;;1999.90;999.90;;;9.80;99.90;;;;;;5015157;28;20497;-67
2022/11/11 06:45:18;;;;;;;1999.90;999.90;;;9.90;99.90;;;;;;5020574;28;20460;-68
2022/11/11 06:47:45;;;;;;;1999.90;999.90;;;10.00;99.90;;;;;;5020108;28;20467;-68
2022/11/11 06:50:11;;;;;;;1999.90;999.90;;;10.00;99.90;;;;;;5017405;28;20460;-71
2022/11/11 06:52:38;;;;;;;1999.90;999.90;;;10.00;99.90;;;;;;5010208;28;20546;-67
2022/11/11 06:55:07;;;;;;;1999.90;999.90;;;10.00;99.90;;;;;;5005855;28;20463;-70
2022/11/11 06:57:34;;;;;;;1999.90;999.90;;;9.90;99.90;;;;;;5018051;28;20885;-70
2022/11/11 07:00:01;;;;;;;1999.90;999.90;;;9.80;99.90;;;;;;5019429;28;20987;-68
2022/11/11 07:02:27;;;;;;;1999.90;999.90;;;9.80;99.90;;;;;;5019306;28;20499;-66
2022/11/11 07:04:54;;;;;;;1999.90;999.90;;;9.80;99.90;;;;;;5009710;28;20460;-68
2022/11/11 07:07:21;;;;;;;1999.90;999.90;;;9.70;99.90;;;;;;5010736;28;20978;-67
2022/11/11 07:09:48;;;;;;;1999.90;999.90;;;9.60;99.90;;;;;;5012486;28;20444;-68
2022/11/11 07:12:16;;;;;;;1999.90;999.90;;;9.50;99.90;;;;;;5016133;28;20456;-70
2022/11/11 07:14:43;;;;;;;1999.90;999.90;;;9.50;99.90;;;;;;5019632;28;20455;-68
2022/11/11 07:17:10;;;;;;;1999.90;999.90;;;9.50;99.90;;;;;;5017092;28;20460;-65
2022/11/11 07:19:37;;;;;;;1999.90;999.90;;;9.40;99.90;;;;;;5020177;28;20821;-64
2022/11/11 07:22:04;;;;;;;1999.90;999.90;;;9.30;99.90;;;;;;5025641;28;20463;-69
2022/11/11 07:24:31;;;;;;;1999.90;999.90;;;9.30;99.90;;;;;;5031571;23;20507;-68
2022/11/11 07:27:00;;;;;;;1999.90;999.90;;;9.30;99.90;;;;;;5007844;28;20470;-68
2022/11/11 07:29:29;;;;;;;1999.90;999.90;;;9.70;99.90;;;;;;5007685;28;20555;-67
2022/11/11 07:31:55;;;;;;;1999.90;999.90;;;9.40;99.90;;;;;;5015116;28;20460;-68
2022/11/11 07:34:22;;;;;;;1999.90;999.90;;;9.60;99.90;;;;;;5013410;28;20484;-68
2022/11/11 07:36:49;;;;;;;1999.90;999.90;;;9.60;99.90;;;;;;4999939;28;20457;-71
2022/11/11 07:39:16;;;;;;;1999.90;999.90;;;9.70;99.90;;;;;;5005017;28;20468;-71
2022/11/11 07:41:43;;;;;;;1999.90;999.90;;;9.90;99.90;;;;;;5015850;28;20490;-67
2022/11/11 07:44:09;;;;;;;1999.90;999.90;;;10.10;99.90;;;;;;5016929;28;20499;-69
2022/11/11 07:46:37;;;;;;;1999.90;999.90;;;10.70;99.90;;;;;;5019580;28;20463;-69
2022/11/11 07:49:04;;;;;;;1999.90;999.90;;;10.90;99.90;;;;;;5017337;28;20478;-69
2022/11/11 07:51:31;;;;;;;1999.90;999.90;;;11.00;99.90;;;;;;5004702;28;20463;-70
2022/11/11 07:53:58;;;;;;;1999.90;999.90;;;11.10;99.90;;;;;;5008437;28;20478;-72
2022/11/11 07:56:25;;;;;;;1999.90;999.90;;;11.30;99.90;;;;;;5013109;28;20460;-71
2022/11/11 07:58:51;;;;;;;1999.90;999.90;;;11.60;99.90;;;;;;5016545;28;20472;-72
2022/11/11 08:01:18;;;;;;;1999.90;999.90;;;11.60;99.90;;;;;;5010145;28;20459;-72
2022/11/11 08:03:49;;;;;;;1999.90;999.90;;;11.90;99.90;;;;;;5015946;28;20498;-72
2022/11/11 08:06:17;;;;;;;1999.90;999.90;;;12.20;99.90;;;;;;5015196;28;20468;-72
2022/11/11 08:08:43;;;;;;;1999.90;999.90;;;12.30;99.90;;;;;;5025443;28;20463;-72
2022/11/11 08:11:10;;;;;;;1999.90;999.90;;;12.50;99.90;;;;;;5010063;28;20467;-70
2022/11/11 08:13:39;;;;;;;1999.90;999.90;;;12.80;99.90;;;;;;5010210;28;20487;-72
2022/11/11 08:16:06;;;;;;;1999.90;999.90;;;12.90;99.90;;;;;;5007961;28;20960;-72
2022/11/11 08:18:33;;;;;;;1999.90;999.90;;;12.90;99.90;;;;;;5011017;28;20464;-70
2022/11/11 08:21:02;;;;;;;1999.90;999.90;;;13.00;99.90;;;;;;5020262;28;20490;-69
2022/11/11 08:23:32;;;;;;;1999.90;999.90;;;13.10;99.90;;;;;;5020962;28;20492;-69
2022/11/11 08:25:59;;;;;;;1999.90;999.90;;;13.20;99.90;;;;;;5009486;28;20474;-69
2022/11/11 08:28:26;;;;;;;1999.90;999.90;;;13.20;99.90;;;;;;5010782;28;21048;-70
2022/11/11 08:30:53;;;;;;;1999.90;999.90;;;13.30;99.90;;;;;;5015807;28;20471;-70
2022/11/11 08:33:20;;;;;;;1999.90;999.90;;;13.40;99.90;;;;;;5016220;28;20855;-70
2022/11/11 08:35:47;;;;;;;1999.90;999.90;;;13.50;99.90;;;;;;5010872;28;21784;-70
2022/11/11 08:38:16;;;;;;;1999.90;999.90;;;13.70;99.90;;;;;;5011084;28;20464;-70
2022/11/11 08:40:42;;;;;;;1999.90;999.90;;;13.80;99.90;;;;;;5012187;28;20468;-69
2022/11/11 08:43:09;;;;;;;1999.90;999.90;;;14.10;99.90;;;;;;5013673;28;20487;-69
2022/11/11 08:45:36;;;;;;;1999.90;999.90;;;14.00;99.90;;;;;;5012647;28;20797;-69
2022/11/11 08:48:03;;;;;;;1999.90;999.90;;;14.00;99.90;;;;;;5013453;28;20479;-70
2022/11/11 08:50:31;;;;;;;1999.90;999.90;;;14.10;99.70;;;;;;5014820;28;20459;-69
2022/11/11 08:52:57;;;;;;;1999.90;999.90;;;14.20;98.50;;;;;;5016382;28;20464;-69
2022/11/11 08:55:26;;;;;;;1999.90;999.90;;;14.40;98.50;;;;;;5007909;28;20468;-69
2022/11/11 08:57:59;;;;;;;1999.90;999.90;;;14.50;99.10;;;;;;4993879;28;20445;-70
2022/11/11 09:00:26;;;;;;;1999.90;999.90;;;14.50;99.30;;;;;;5004071;28;20536;-70
2022/11/11 09:02:53;;;;;;;1999.90;999.90;;;15.00;99.80;;;;;;5009656;28;20444;-69
2022/11/11 09:05:20;;;;;;;1999.90;999.90;;;14.50;99.60;;;;;;5010540;28;20885;-69
2022/11/11 09:07:47;;;;;;;1999.90;999.90;;;14.40;99.80;;;;;;5014249;28;20470;-69
2022/11/11 09:10:14;;;;;;;1999.90;999.90;;;14.40;99.90;;;;;;5011673;28;20475;-69
2022/11/11 09:12:42;;;;;;;1999.90;999.90;;;14.30;99.90;;;;;;4998317;28;20460;-72
2022/11/11 09:15:09;;;;;;;1999.90;999.90;;;14.10;99.90;;;;;;5007909;28;20481;-70
2022/11/11 09:17:36;;;;;;;1999.90;999.90;;;14.10;99.90;;;;;;5011841;28;20830;-72
2022/11/11 09:20:04;;;;;;;1999.90;999.90;;;14.20;99.90;;;;;;5012603;28;20821;-72
2022/11/11 09:22:30;;;;;;;1999.90;999.90;;;14.10;99.90;;;;;;5005969;28;20461;-72
2022/11/11 09:24:57;;;;;;;1999.90;999.90;;;14.20;99.90;;;;;;4999661;28;20489;-72
2022/11/11 09:27:24;;;;;;;1999.90;999.90;;;14.20;99.90;;;;;;5004214;28;20476;-70
2022/11/11 09:29:52;;;;;;;1999.90;999.90;;;14.20;99.90;;;;;;4998149;28;20472;-70
2022/11/11 09:32:19;;;;;;;1999.90;999.90;;;14.30;99.90;;;;;;5005671;28;20467;-70
2022/11/11 09:34:45;;;;;;;1999.90;999.90;;;14.40;99.90;;;;;;4996008;28;20592;-70
2022/11/11 09:37:12;;;;;;;1999.90;999.90;;;14.40;99.90;;;;;;5003823;28;20467;-70
2022/11/11 09:39:39;;;;;;;1999.90;999.90;;;14.50;99.30;;;;;;5004230;28;20444;-69
2022/11/11 09:42:16;;;;;;;1999.90;999.90;;;14.60;99.30;;;;;;5003171;28;20476;-70
2022/11/11 09:45:05;;;;;;;1999.90;999.90;;;14.60;99.60;;;;;;5001420;28;20542;-70
2022/11/11 09:47:39;;;;;;;1999.90;999.90;;;14.70;99.40;;;;;;5006500;28;20463;-70
2022/11/11 09:50:10;;;;;;;1999.90;999.90;;;14.80;99.10;;;;;;5004478;28;20466;-68
2022/11/11 09:52:43;;;;;;;1999.90;999.90;;;14.80;99.00;;;;;;5007564;28;20460;-68
2022/11/11 09:55:17;;;;;;;1999.90;999.90;;;14.80;99.90;;;;;;5002107;28;20487;-70
2022/11/11 09:57:48;;;;;;;1999.90;999.90;;;14.70;99.90;;;;;;5007219;28;20959;-68
2022/11/11 10:00:20;;;;;;;1999.90;999.90;;;14.50;99.90;;;;;;5006050;28;20455;-70
2022/11/11 10:02:51;;;;;;;1999.90;999.90;;;14.40;99.90;;;;;;5001477;28;20460;-69
2022/11/11 10:05:24;;;;;;;1999.90;999.90;;;14.40;99.90;;;;;;5005949;28;20498;-70
2022/11/11 10:07:55;;;;;;;1999.90;999.90;;;14.30;99.90;;;;;;4996910;28;20461;-70
2022/11/11 10:10:30;;;;;;;1999.90;999.90;;;14.40;99.90;;;;;;5011245;28;20836;-69
2022/11/11 10:12:58;;;;;;;1999.90;999.90;;;14.40;99.90;;;;;;5009349;28;20467;-68
2022/11/11 10:15:31;;;;;;;1999.90;999.90;;;14.50;99.90;;;;;;5011315;28;20440;-70
2022/11/11 10:18:23;;;;;;;1999.90;999.90;;;14.50;99.90;;;;;;5012398;28;20428;-70
2022/11/11 10:20:54;;;;;;;1999.90;999.90;;;14.50;99.90;;;;;;5011882;28;20440;-70
2022/11/11 10:23:26;;;;;;;1999.90;999.90;;;14.80;99.90;;;;;;5011801;28;20463;-70
2022/11/11 10:25:55;;;;;;;1999.90;999.90;;;15.00;99.90;;;;;;5002631;28;20457;-70
2022/11/11 10:28:25;;;;;;;1999.90;999.90;;;15.20;99.90;;;;;;5000630;28;20452;-70
2022/11/11 10:30:55;;;;;;;1999.90;999.90;;;15.20;99.90;;;;;;4992016;28;20448;-69
2022/11/11 10:33:27;;;;;;;1999.90;999.90;;;15.20;99.90;;;;;;4992216;28;20469;-70
2022/11/11 10:35:56;;;;;;;1999.90;999.90;;;15.30;99.90;;;;;;4991719;28;20449;-70
2022/11/11 10:38:35;;;;;;;1999.90;999.90;;;15.40;99.90;;;;;;5003423;28;20466;-70
2022/11/11 10:41:11;;;;;;;1999.90;999.90;;;15.40;99.90;;;;;;5007105;28;20981;-69
2022/11/11 10:43:38;;;;;;;1999.90;999.90;;;15.30;99.90;;;;;;4996111;28;20475;-68
2022/11/11 10:46:13;;;;;;;1999.90;999.90;;;15.30;99.90;;;;;;4995030;28;20830;-71
2022/11/11 10:48:50;;;;;;;1999.90;999.90;;;15.50;99.90;;;;;;4995912;28;20444;-69
2022/11/11 10:51:18;;;;;;;1999.90;999.90;;;15.80;99.90;;;;;;4996204;28;20462;-70
2022/11/11 10:53:52;;;;;;;1999.90;999.90;;;15.60;99.90;;;;;;5010323;28;20463;-70
2022/11/11 10:56:25;;;;;;;1999.90;999.90;;;15.70;99.90;;;;;;4994144;28;20456;-71
2022/11/11 10:58:58;;;;;;;1999.90;999.90;;;15.80;99.90;;;;;;4999905;28;20471;-71
2022/11/11 11:01:32;;;;;;;1999.90;999.90;;;16.00;99.90;;;;;;5016039;28;20466;-70
2022/11/11 11:04:03;;;;;;;1999.90;999.90;;;16.00;99.90;;;;;;5016876;28;20521;-71
2022/11/11 11:06:34;;;;;;;1999.90;999.90;;;16.20;99.90;;;;;;5010829;28;20463;-70
2022/11/11 11:09:08;;;;;;;1999.90;999.90;;;16.40;99.90;;;;;;5007761;28;20471;-70
2022/11/11 11:11:40;;;;;;;1999.90;999.90;;;16.60;97.60;;;;;;5012457;28;20467;-70
2022/11/11 11:14:15;;;;;;;1999.90;999.90;;;16.70;96.30;;;;;;5013429;28;21027;-70
2022/11/11 11:16:49;;;;;;;1999.90;999.90;;;16.80;94.80;;;;;;5017041;28;20490;-71
2022/11/11 11:19:21;;;;;;;1999.90;999.90;;;17.00;96.00;;;;;;5011668;28;20949;-70
2022/11/11 11:21:51;;;;;;;1999.90;999.90;;;17.20;93.70;;;;;;5012029;28;20468;-73
2022/11/11 11:24:23;;;;;;;1999.90;999.90;;;17.40;92.00;;;;;;5010469;28;20514;-72
2022/11/11 11:26:53;;;;;;;1999.90;999.90;;;17.70;90.00;;;;;;5020254;28;20455;-72
2022/11/11 11:29:28;;;;;;;1999.90;999.90;;;17.80;87.30;;;;;;5023845;28;20467;-72
2022/11/11 11:32:10;;;;;;;1999.90;999.90;;;18.40;85.00;;;;;;5023205;28;20478;-73
2022/11/11 11:34:46;;;;;;;1999.90;999.90;;;18.10;84.10;;;;;;5022674;28;20484;-73
2022/11/11 11:37:13;;;;;;;1999.90;999.90;;;18.20;87.40;;;;;;5014773;28;20460;-72
2022/11/11 11:39:41;;;;;;;1999.90;999.90;;;18.40;90.50;;;;;;5012545;28;20456;-73
2022/11/11 11:42:09;;;;;;;1999.90;999.90;;;18.40;90.00;;;;;;5009737;28;20495;-71
2022/11/11 11:44:38;;;;;;;1999.90;999.90;;;18.50;90.20;;;;;;5010416;28;20487;-72
2022/11/11 11:47:24;;;;;;;1999.90;999.90;;;18.60;89.40;;;;;;5012894;28;20487;-73
2022/11/11 11:50:17;;;;;;;1999.90;999.90;;;18.70;88.30;;;;;;5003792;28;20998;-72
2022/11/11 11:52:51;;;;;;;1999.90;999.90;;;18.90;81.00;;;;;;5007833;28;20451;-73
2022/11/11 11:55:22;;;;;;;1999.90;999.90;;;19.10;80.90;;;;;;5012085;28;20468;-69
2022/11/11 11:58:02;;;;;;;1999.90;999.90;;;18.40;84.60;;;;;;5016174;28;20456;-70
2022/11/11 12:00:35;;;;;;;1999.90;999.90;;;18.50;85.30;;;;;;4994401;28;20440;-72
2022/11/11 12:03:27;;;;;;;1999.90;999.90;;;18.80;78.40;;;;;;4994538;28;20436;-72
2022/11/11 12:06:02;;;;;;;1999.90;999.90;;;18.70;83.90;;;;;;4993771;28;20480;-73
2022/11/11 12:08:42;;;;;;;1999.90;999.90;;;18.70;86.90;;;;;;4994262;28;20445;-73
2022/11/11 12:11:18;;;;;;;1999.90;999.90;;;18.70;90.00;;;;;;4994429;28;20426;-73
2022/11/11 12:13:58;;;;;;;1999.90;999.90;;;18.80;79.10;;;;;;5012450;28;20479;-72
2022/11/11 12:16:26;;;;;;;1999.90;999.90;;;18.70;79.30;;;;;;4993550;28;20452;-73
2022/11/11 12:19:19;;;;;;;1999.90;999.90;;;18.50;77.00;;;;;;4993935;28;20449;-73
2022/11/11 12:21:57;;;;;;;1999.90;999.90;;;18.60;76.70;;;;;;4994299;28;20444;-73
2022/11/11 12:24:37;;;;;;;1999.90;999.90;;;18.70;76.60;;;;;;5012435;28;20488;-71
2022/11/11 12:27:14;;;;;;;1999.90;999.90;;;18.60;79.60;;;;;;5016574;28;20950;-73
2022/11/11 12:29:55;;;;;;;1999.90;999.90;;;18.80;82.50;;;;;;4999595;28;20456;-73
2022/11/11 12:32:38;;;;;;;1999.90;999.90;;;18.60;79.40;;;;;;4993868;28;20476;-73
2022/11/11 12:35:28;;;;;;;1999.90;999.90;;;18.50;74.00;;;;;;4992972;28;20846;-73
2022/11/11 12:38:06;;;;;;;1999.90;999.90;;;18.70;76.60;;;;;;4993485;28;20453;-73
2022/11/11 12:40:48;;;;;;;1999.90;999.90;;;18.60;76.80;;;;;;4995102;28;20460;-73
2022/11/11 12:43:25;;;;;;;1999.90;999.90;;;18.60;77.40;;;;;;5010906;28;20444;-73
2022/11/11 12:45:59;;;;;;;1999.90;999.90;;;18.50;79.00;;;;;;4992737;28;21187;-73
2022/11/11 12:48:44;;;;;;;1999.90;999.90;;;18.50;76.80;;;;;;4993562;28;20445;-73
2022/11/11 12:51:23;;;;;;;1999.90;999.90;;;18.40;77.20;;;;;;4993744;28;20449;-73
2022/11/11 12:53:57;;;;;;;1999.90;999.90;;;18.40;78.60;;;;;;4993300;28;20475;-73
2022/11/11 12:56:31;;;;;;;1999.90;999.90;;;18.40;77.00;;;;;;4998188;28;21108;-73
2022/11/11 12:59:08;;;;;;;1999.90;999.90;;;18.30;80.00;;;;;;5001161;28;20971;-72
2022/11/11 13:01:50;;;;;;;1999.90;999.90;;;18.50;77.10;;;;;;4992935;28;20433;-71
2022/11/11 13:04:42;;;;;;;1999.90;999.90;;;18.20;78.90;;;;;;4992922;28;20468;-70
2022/11/11 13:07:33;;;;;;;1999.90;999.90;;;18.10;77.50;;;;;;4993397;28;20468;-72
2022/11/11 13:10:16;;;;;;;1999.90;999.90;;;18.10;75.00;;;;;;4993485;28;20440;-73
2022/11/11 13:12:49;;;;;;;1999.90;999.90;;;18.10;77.90;;;;;;5007722;28;20464;-72
2022/11/11 13:15:21;;;;;;;1999.90;999.90;;;18.00;78.50;;;;;;5009638;28;20456;-73
2022/11/11 13:17:48;;;;;;;1999.90;999.90;;;18.00;77.60;;;;;;4992719;28;20456;-72
2022/11/11 13:20:37;;;;;;;1999.90;999.90;;;18.10;77.00;;;;;;4992859;28;20954;-71
2022/11/11 13:23:10;;;;;;;1999.90;999.90;;;18.00;78.00;;;;;;4994464;28;20462;-68
2022/11/11 13:25:41;;;;;;;1999.90;999.90;;;17.90;78.10;;;;;;4992618;28;20867;-69
2022/11/11 13:28:16;;;;;;;1999.90;999.90;;;17.80;79.10;;;;;;4998317;28;20495;-69
2022/11/11 13:31:03;;;;;;;1999.90;999.90;;;17.70;79.20;;;;;;5001332;28;20453;-69
2022/11/11 13:33:38;;;;;;;1999.90;999.90;;;17.80;79.90;;;;;;4993344;28;20479;-70
2022/11/11 13:36:09;;;;;;;1999.90;999.90;;;17.70;79.30;;;;;;4992379;28;20439;-70